Map

Track Data

SID SEASON NUMBER BASIN SUBBASIN NAME ISO_TIME NATURE LAT LON WMO_WIND WMO_PRES WMO_AGENCY TRACK_TYPE DIST2LAND LANDFALL IFLAG USA_AGENCY USA_ATCF_ID USA_LAT USA_LON USA_RECORD USA_STATUS USA_WIND USA_PRES USA_SSHS USA_R34_NE USA_R34_SE USA_R34_SW USA_R34_NW USA_R50_NE USA_R50_SE USA_R50_SW USA_R50_NW USA_R64_NE USA_R64_SE USA_R64_SW USA_R64_NW USA_POCI USA_ROCI USA_RMW USA_EYE TOKYO_LAT TOKYO_LON TOKYO_GRADE TOKYO_WIND TOKYO_PRES TOKYO_R50_DIR TOKYO_R50_LONG TOKYO_R50_SHORT TOKYO_R30_DIR TOKYO_R30_LONG TOKYO_R30_SHORT TOKYO_LAND CMA_LAT CMA_LON CMA_CAT CMA_WIND CMA_PRES HKO_LAT HKO_LON HKO_CAT HKO_WIND HKO_PRES NEWDELHI_LAT NEWDELHI_LON NEWDELHI_GRADE NEWDELHI_WIND NEWDELHI_PRES NEWDELHI_CI NEWDELHI_DP NEWDELHI_POCI REUNION_LAT REUNION_LON REUNION_TYPE REUNION_WIND REUNION_PRES REUNION_TNUM REUNION_CI REUNION_RMW REUNION_R34_NE REUNION_R34_SE REUNION_R34_SW REUNION_R34_NW REUNION_R50_NE REUNION_R50_SE REUNION_R50_SW REUNION_R50_NW REUNION_R64_NE REUNION_R64_SE REUNION_R64_SW REUNION_R64_NW BOM_LAT BOM_LON BOM_TYPE BOM_WIND BOM_PRES BOM_TNUM BOM_CI BOM_RMW BOM_R34_NE BOM_R34_SE BOM_R34_SW BOM_R34_NW BOM_R50_NE BOM_R50_SE BOM_R50_SW BOM_R50_NW BOM_R64_NE BOM_R64_SE BOM_R64_SW BOM_R64_NW BOM_ROCI BOM_POCI BOM_EYE BOM_POS_METHOD BOM_PRES_METHOD NADI_LAT NADI_LON NADI_CAT NADI_WIND NADI_PRES WELLINGTON_LAT WELLINGTON_LON WELLINGTON_WIND WELLINGTON_PRES DS824_LAT DS824_LON DS824_STAGE DS824_WIND DS824_PRES TD9636_LAT TD9636_LON TD9636_STAGE TD9636_WIND TD9636_PRES TD9635_LAT TD9635_LON TD9635_WIND TD9635_PRES TD9635_ROCI NEUMANN_LAT NEUMANN_LON NEUMANN_CLASS NEUMANN_WIND NEUMANN_PRES MLC_LAT MLC_LON MLC_CLASS MLC_WIND MLC_PRES USA_GUST BOM_GUST BOM_GUST_PER REUNION_GUST REUNION_GUST_PER USA_SEAHGT USA_SEARAD_NE USA_SEARAD_SE USA_SEARAD_SW USA_SEARAD_NW STORM_SPEED STORM_DIR
1974030S15182 1974 12 SP MM PAM 1974-01-30 00:00:00 NR -15.0000 182.200 30 997 wellington main 280 267 ________O_____ -1 -15.0000 -177.800 30 997 6 310
1974030S15182 1974 12 SP MM PAM 1974-01-30 03:00:00 NR -14.8220 181.983 main 274 263 ________P_____ -1 -14.8220 -178.017 30 997 6 311
1974030S15182 1974 12 SP MM PAM 1974-01-30 06:00:00 NR -14.6352 181.762 main 271 263 ________P_____ -1 -14.6352 -178.238 30 997 6 312
1974030S15182 1974 12 SP MM PAM 1974-01-30 09:00:00 NR -14.4307 181.536 main 264 264 ________P_____ -1 -14.4307 -178.464 30 997 6 314
1974030S15182 1974 12 SP MM PAM 1974-01-30 12:00:00 NR -14.2000 181.300 30 997 wellington main 269 269 ________O_____ -1 -14.2000 -178.700 30 997 7 316
1974030S15182 1974 12 SP MM PAM 1974-01-30 15:00:00 NR -13.9383 181.052 main 287 283 ________P_____ -1 -13.9383 -178.948 30 997 7 318
1974030S15182 1974 12 SP MM PAM 1974-01-30 18:00:00 NR -13.6573 180.788 main 296 296 ________P_____ -1 -13.6573 -179.212 30 997 8 317
1974030S15182 1974 12 SP MM PAM 1974-01-30 21:00:00 NR -13.3726 180.505 main 320 320 ________P_____ -1 -13.3726 -179.495 30 997 8 314
1974030S15182 1974 12 SP MM PAM 1974-01-31 00:00:00 NR -13.1000 180.200 30 997 wellington main 348 347 ________O_____ -1 -13.1000 -179.800 30 997 8 312
1974030S15182 1974 12 SP MM PAM 1974-01-31 03:00:00 NR -12.8239 179.884 main 380 380 ________P_____ -1 -12.8239 179.884 32 995 8 310
1974030S15182 1974 12 SP MM PAM 1974-01-31 06:00:00 NR -12.5673 179.545 main 404 404 ________P_____ -1 -12.5673 179.545 35 993 8 305
1974030S15182 1974 12 SP MM PAM 1974-01-31 09:00:00 NR -12.3520 179.184 main 430 430 ________P_____ -1 -12.3520 179.184 37 991 8 297
1974030S15182 1974 12 SP MM PAM 1974-01-31 12:00:00 NR -12.2000 178.800 40 990 wellington main 460 460 ________O_____ -1 -12.2000 178.800 40 990 8 288
1974030S15182 1974 12 SP MM PAM 1974-01-31 15:00:00 NR -12.1029 178.380 main 483 483 ________P_____ -1 -12.1029 178.380 43 987 8 279
1974030S15182 1974 12 SP MM PAM 1974-01-31 18:00:00 NR -12.0727 177.943 main 500 500 ________P_____ -1 -12.0727 177.943 47 985 9 270
1974030S15182 1974 12 SP MM PAM 1974-01-31 21:00:00 NR -12.1061 177.508 main 517 498 ________P_____ -1 -12.1061 177.508 51 982 3 242
1974030S15182 1974 12 SP MM PAM 1974-02-01 00:00:00 TS -12.2000 177.700 55 980 wellington main 498 486 O_______OOO___ jtwc_sh SH201974 -12.2000 178.500 -1 -12.2000 177.100 55 980 -12.2000 178.500 TC -12.2000 178.500 4 4 204
1974030S15182 1974 12 SP MM PAM 1974-02-01 03:00:00 TS -12.4324 177.364 main 490 477 P_______PPP___ SH201974 -12.5079 177.745 -1 -12.3214 176.795 55 980 -12.5079 177.745 TC -12.5036 177.738 4 10 239
1974030S15182 1974 12 SP MM PAM 1974-02-01 06:00:00 TS -12.7069 176.847 main 483 473 O_______POP___ jtwc_sh SH201974 -12.8000 177.000 -1 -12.5013 176.509 55 980 -12.8000 177.000 TC -12.7949 176.990 4 12 243
1974030S15182 1974 12 SP MM PAM 1974-02-01 09:00:00 TS -12.9810 176.255 main 476 476 P_______PPP___ SH201974 -13.0649 176.277 -1 -12.7306 176.194 55 980 -13.0649 176.277 TC -13.0637 176.272 4 13 246
1974030S15182 1974 12 SP MM PAM 1974-02-01 12:00:00 TS -13.2250 175.650 55 980 wellington main 494 491 O_______OOO___ jtwc_sh SH201974 -13.3000 175.600 -1 -13.0000 175.800 55 980 -13.3000 175.600 TC -13.3000 175.600 4 13 248
1974030S15182 1974 12 SP MM PAM 1974-02-01 15:00:00 TS -13.4435 175.059 main 519 519 P_______PPP___ SH201974 -13.4997 174.985 -1 -13.2728 175.285 57 977 -13.4997 174.985 TC -13.5016 174.983 4 12 249
1974030S15182 1974 12 SP MM PAM 1974-02-01 18:00:00 TS -13.6695 174.470 main 533 533 O_______POP___ jtwc_sh SH201974 -13.7000 174.400 -1 -13.5823 174.684 60 975 -13.7000 174.400 TC -13.6958 174.398 4 13 248
1974030S15182 1974 12 SP MM PAM 1974-02-01 21:00:00 TS -13.9168 173.865 main 557 557 P_______PPP___ SH201974 -13.9122 173.815 -1 -13.9256 174.016 62 972 -13.9122 173.815 TC -13.9172 173.814 4 13 245
1974030S15182 1974 12 SP MM PAM 1974-02-02 00:00:00 TS -14.2250 173.225 65 970 wellington main 588 548 O_______OOO___ jtwc_sh SH201974 -14.2000 173.200 -1 -14.3000 173.300 65 970 -14.2000 173.200 TC -14.2000 173.200 4 15 241
1974030S15182 1974 12 SP MM PAM 1974-02-02 03:00:00 TS -14.6312 172.536 main 538 448 P_______PPP___ SH201974 -14.6199 172.522 -1 -14.7044 172.564 68 966 -14.6199 172.522 TC -14.5806 172.535 4 16 238
1974030S15182 1974 12 SP MM PAM 1974-02-02 06:00:00 TS -15.0897 171.805 main 448 364 O_______POP___ jtwc_sh SH201974 -15.1000 171.800 -1 -15.1350 171.788 72 962 -15.1000 171.800 TC -15.0239 171.832 4 17 237
1974030S15182 1974 12 SP MM PAM 1974-02-02 09:00:00 TS -15.5406 171.060 main 364 269 P_______PPP___ SH201974 -15.5421 171.079 -1 -15.5730 170.992 76 958 -15.5421 171.079 TC -15.5053 171.088 4 17 238
1974030S15182 1974 12 SP MM PAM 1974-02-02 12:00:00 TS -16.0000 170.275 80 955 wellington main 269 181 O_______OOO___ jtwc_sh SH201974 -16.0000 170.300 -1 -16.0000 170.200 80 955 -16.0000 170.300 TC -16.0000 170.300 4 18 239
1974030S15182 1974 12 SP MM PAM 1974-02-02 15:00:00 TS -16.4756 169.417 main 170 91 P_______PPP___ SH201974 -16.5000 169.415 -1 -16.3931 169.414 78 956 -16.5000 169.415 TC -16.5093 169.425 4 19 240
1974030S15182 1974 12 SP MM PAM 1974-02-02 18:00:00 TS -16.9478 168.539 main 81 70 O_______POP___ jtwc_sh SH201974 -17.0000 168.500 -1 -16.7723 168.639 77 957 -17.0000 168.500 TC -17.0189 168.515 4 19 241
1974030S15182 1974 12 SP MM PAM 1974-02-02 21:00:00 TS -17.4022 167.686 main 90 90 P_______PPP___ SH201974 -17.4874 167.613 -1 -17.1402 167.895 76 958 -17.4874 167.613 TC -17.4939 167.622 4 18 241
1974030S15182 1974 12 SP MM PAM 1974-02-03 00:00:00 TS -17.8000 166.900 75 960 wellington main 148 148 O_______OOO___ jtwc_sh SH201974 -17.9000 166.800 -1 -17.5000 167.200 75 960 -17.9000 166.800 TC -17.9000 166.800 4 16 243
1974030S15182 1974 12 SP MM PAM 1974-02-03 03:00:00 TS -18.1043 166.219 main 217 217 P_______PPP___ SH201974 -18.1871 166.104 -1 -17.8680 166.574 73 961 -18.1871 166.104 TC -18.1750 166.094 4 13 246
1974030S15182 1974 12 SP MM PAM 1974-02-03 06:00:00 TS -18.3535 165.616 main 241 200 O_______POP___ jtwc_sh SH201974 -18.4000 165.500 -1 -18.2282 165.996 72 962 -18.4000 165.500 TC -18.3856 165.469 4 12 247
1974030S15182 1974 12 SP MM PAM 1974-02-03 09:00:00 TS -18.5844 165.053 main 200 165 P_______PPP___ SH201974 -18.5923 164.927 -1 -18.5744 165.446 71 963 -18.5923 164.927 TC -18.5785 164.910 4 11 246
1974030S15182 1974 12 SP MM PAM 1974-02-03 12:00:00 TS -18.8250 164.525 70 965 wellington main 162 123 O_______OOO___ jtwc_sh SH201974 -18.8000 164.400 -1 -18.9000 164.900 70 965 -18.8000 164.400 TC -18.8000 164.400 4 11 243
1974030S15182 1974 12 SP MM PAM 1974-02-03 15:00:00 TS -19.0972 163.985 main 123 103 P_______PPP___ SH201974 -19.0699 163.877 -1 -19.1600 164.295 73 960 -19.0699 163.877 TC -19.0890 163.890 4 11 240
1974030S15182 1974 12 SP MM PAM 1974-02-03 18:00:00 TS -19.4055 163.480 main 109 107 O_______POP___ jtwc_sh SH201974 -19.4000 163.400 -1 -19.4052 163.696 77 955 -19.4000 163.400 TC -19.4168 163.424 4 11 234
1974030S15182 1974 12 SP MM PAM 1974-02-03 21:00:00 TS -19.7496 163.019 main 124 118 P_______PPP___ SH201974 -19.7699 162.977 -1 -19.6727 163.123 81 950 -19.7699 162.977 TC -19.7861 162.996 4 11 229
1974030S15182 1974 12 SP MM PAM 1974-02-03 23:00:00 TS -20.0032 162.757 main 129 137 P_____O_PPP___ SH201974 -20.0499 162.722 -1 -19.9000 163.100 40 105 928 6.00000 -19.8819 162.768 83 946 -20.0499 162.722 TC -20.0569 162.729 4 145 145 10 221
1974030S15182 1974 12 SP MM PAM 1974-02-04 00:00:00 TS -20.1161 162.684 85 945 wellington main 137 136 O_____P_OOO_O_ jtwc_sh SH201974 -20.2000 162.600 -1 -20.0107 162.945 40 105 928 -20.0000 162.600 85 945 -20.2000 162.600 TC -20.2000 162.600 4 -19.9000 163.300 TC 80 965 10 218
1974030S15182 1974 12 SP MM PAM 1974-02-04 03:00:00 TS -20.5384 162.313 main 178 178 P_____P_PPP_P_ SH201974 -20.6849 162.242 -1 -20.3649 162.476 40 105 929 -20.4347 162.126 81 950 -20.6849 162.242 TC -20.6646 162.209 4 -20.2978 162.791 TC 80 966 11 219
1974030S15182 1974 12 SP MM PAM 1974-02-04 06:00:00 TS -20.9925 161.936 main 232 232 O_____O_POP_O_ jtwc_sh SH201974 -21.2000 161.900 -1 -20.8000 162.000 40 105 930 6.00000 -20.9319 161.703 77 955 -21.2000 161.900 TC -21.1696 161.847 4 -20.7000 162.300 TC 80 967 145 145 12 217
1974030S15182 1974 12 SP MM PAM 1974-02-04 09:00:00 TS -21.4711 161.549 main 292 292 P_____P_PPP_P_ SH201974 -21.7075 161.542 -1 -21.3188 161.517 40 105 927 -21.4631 161.329 73 960 -21.7075 161.542 TC -21.6898 161.512 4 -21.1198 161.842 TC 77 968 12 217
1974030S15182 1974 12 SP MM PAM 1974-02-04 11:00:00 TS -21.7981 161.290 main 326 326 P_____O_PPP_P_ SH201974 -22.0390 161.311 -1 -21.6000 161.200 40 105 925 6.00000 -21.8222 161.105 71 963 -22.0390 161.311 TC -22.0326 161.302 4 -21.4302 161.547 TC 75 969 145 145 12 217
1974030S15182 1974 12 SP MM PAM 1974-02-04 12:00:00 TS -21.9473 161.163 70 965 wellington main 341 341 O_____P_OOO_O_ jtwc_sh SH201974 -22.2000 161.200 -1 -21.6312 161.043 40 105 925 -22.0000 161.000 70 965 -22.2000 161.200 TC -22.2000 161.200 4 -21.6000 161.400 TC 75 970 11 219
1974030S15182 1974 12 SP MM PAM 1974-02-04 15:00:00 TS -22.3696 160.792 main 406 406 P_____P_PPP_P_ SH201974 -22.6574 160.885 -1 -21.6232 160.587 40 105 926 -22.4874 160.694 71 963 -22.6574 160.885 TC -22.6152 160.910 4 -22.1774 160.942 TC 75 970 11 217
1974030S15182 1974 12 SP MM PAM 1974-02-04 17:00:00 TS -22.6812 160.558 main 442 450 P_____O_PPP_P_ SH201974 -22.9526 160.692 -1 -21.8000 160.300 40 105 928 6.00000 -22.8130 160.514 72 962 -22.9526 160.692 TC -22.8860 160.728 4 -22.5921 160.644 TC 75 970 145 145 12 213
1974030S15182 1974 12 SP MM PAM 1974-02-04 18:00:00 TS -22.8638 160.445 main 472 472 O_____P_POP_O_ jtwc_sh SH201974 -23.1000 160.600 -1 -22.0675 160.156 40 105 928 -22.9770 160.431 72 962 -23.1000 160.600 TC -23.0245 160.639 4 -22.8000 160.500 TC 75 970 13 207
1974030S15182 1974 12 SP MM PAM 1974-02-04 21:00:00 TS -23.4558 160.124 main 535 535 P_____P_PPP_P_ SH201974 -23.5124 160.349 -1 -23.2036 159.747 40 105 928 -23.4782 160.203 73 961 -23.5124 160.349 TC -23.4715 160.375 4 -23.4150 160.070 TC 75 970 13 205
1974030S15182 1974 12 SP EA PAM 1974-02-04 23:00:00 TS -23.8703 159.923 105 928 bom main 577 577 P_____O_PPP_P_ SH201974 -23.8214 160.186 -1 -24.0000 159.500 40 105 928 6.00000 -23.8232 160.066 74 960 -23.8214 160.186 TC -23.8121 160.194 4 -23.8114 159.814 TC 75 970 145 145 13 204
1974030S15182 1974 12 SP EA PAM 1974-02-05 00:00:00 TS -24.0686 159.826 main 599 599 O_____P_OOO_O_ jtwc_sh SH201974 -24.0000 160.100 -1 -24.2799 159.385 40 105 929 -24.0000 160.000 75 960 -24.0000 160.100 TC -24.0000 160.100 4 -24.0000 159.700 TC 75 970 13 203
1974030S15182 1974 12 SP EA PAM 1974-02-05 03:00:00 TS -24.6738 159.542 main 615 593 P_____P_PPP_P_ SH201974 -24.6475 159.815 -1 -24.9471 159.080 40 105 932 -24.5492 159.807 76 958 -24.6475 159.815 TC -24.6762 159.770 4 -24.5073 159.427 TC 75 970 13 202
1974030S15182 1974 12 SP EA PAM 1974-02-05 06:00:00 TS -25.2927 159.272 main 594 569 O_____P_POP_O_ jtwc_sh SH201974 -25.4000 159.500 -1 -25.4318 158.830 40 105 935 -25.1197 159.634 77 957 -25.4000 159.500 TC -25.4330 159.429 4 -25.0000 159.200 TC 75 970 14 201
1974030S15182 1974 12 SP EA PAM 1974-02-05 09:00:00 TS -25.9251 158.999 main 570 551 P_____P_PPP_P_ SH201974 -26.1926 159.143 -1 -25.8319 158.622 40 105 938 -25.7054 159.469 78 956 -26.1926 159.143 TC -26.2232 159.098 4 -25.5500 158.935 TC 75 970 14 201
1974030S15182 1974 12 SP EA PAM 1974-02-05 11:00:00 TS -26.3513 158.828 105 941 bom main 551 546 P_____O_PPP_P_ SH201974 -26.7338 158.908 -1 -26.1000 158.500 40 105 941 6.00000 -26.1012 159.358 79 955 -26.7338 158.908 TC -26.7454 158.894 4 -25.9198 158.772 TC 75 970 145 145 14 199
1974030S15182 1974 12 SP EA PAM 1974-02-05 12:00:00 TS -26.5647 158.747 main 533 494 O_____P_OOO_O_ jtwc_sh SH201974 -27.0000 158.800 -1 -26.2531 158.430 40 104 941 -26.3000 159.300 80 955 -27.0000 158.800 TC -27.0000 158.800 4 -26.1000 158.700 TC 75 970 13 198
1974030S15182 1974 12 SP EA PAM 1974-02-05 15:00:00 TS -27.1862 158.527 main 494 472 P_____P_PPP_P_ SH201974 -27.7799 158.520 -1 -26.7036 158.240 40 101 942 -26.8605 159.091 76 958 -27.7799 158.520 TC -27.7449 158.535 4 -26.5999 158.535 TC 72 971 13 196
1974030S15182 1974 12 SP EA PAM 1974-02-05 18:00:00 TS -27.7945 158.341 main 463 449 O_____P_POP_O_ jtwc_sh SH201974 -28.5000 158.300 -1 -27.1837 158.082 40 99 943 -27.4328 158.878 72 962 -28.5000 158.300 TC -28.4620 158.310 4 -27.1000 158.400 TC 70 972 13 194
1974030S15182 1974 12 SP EA PAM 1974-02-05 21:00:00 TS -28.4100 158.182 main 449 437 P_____P_PPP_P_ SH201974 -29.1524 158.112 -1 -27.7488 157.960 40 96 944 -28.0387 158.675 68 966 -29.1524 158.112 TC -29.1232 158.129 4 -27.5975 158.235 TC 70 973 13 192
1974030S15182 1974 12 SP EA PAM 1974-02-05 23:00:00 TS -28.8290 158.100 95 945 bom main 437 437 P_____O_PPP_P_ SH201974 -29.5307 158.028 -1 -28.2000 157.900 40 95 945 5.50000 -28.4720 158.554 66 968 -29.5307 158.028 TC -29.5189 158.037 4 -27.9798 158.139 TC 70 973 135 135 13 188
1974030S15182 1974 12 SP EA PAM 1974-02-06 00:00:00 TS -29.0545 158.072 main 437 429 O_____P_OOO_O_ jtwc_sh SH201974 -29.7000 158.000 -1 -28.4653 157.876 40 94 945 -28.7000 158.500 65 970 -29.7000 158.000 TC -29.7000 158.000 4 -28.2000 158.100 TC 70 974 13 185
1974030S15182 1974 12 SP EA PAM 1974-02-06 03:00:00 TS -29.7202 158.014 main 435 435 P_____P_PPP_P_ SH201974 -30.1375 157.985 -1 -29.3271 157.826 40 91 948 -29.5275 158.332 62 972 -30.1375 157.985 TC -30.1569 157.923 4 -29.0350 158.035 TC 67 975 13 184
1974030S15182 1974 12 SP EA PAM 1974-02-06 05:00:00 TS -30.1352 157.991 90 950 bom main 445 449 P_____O_PPP_P_ SH201974 -30.3829 157.998 -1 -29.9000 157.800 40 90 950 5.50000 -30.1082 158.237 60 974 -30.3829 157.998 TC -30.4136 157.901 4 -29.6238 158.011 TC 65 975 124 124 12 183
1974030S15182 1974 12 SP EA PAM 1974-02-06 06:00:00 TS -30.3348 157.978 main 452 449 O_____P_POP_O_ jtwc_sh SH201974 -30.5000 158.000 -1 -30.1798 157.776 40 88 951 -30.3972 158.197 60 975 -30.5000 158.000 TC -30.5321 157.895 4 -29.9000 158.000 TC 65 976 12 184
1974030S15182 1974 12 SP EA PAM 1974-02-06 09:00:00 TS -30.8972 157.928 main 454 454 P_____P_PPP_P_ SH201974 -30.8575 157.950 -1 -30.9661 157.710 40 83 956 -31.2183 158.113 57 977 -30.8575 157.950 TC -30.8663 157.895 4 -30.6175 157.950 TC 65 11 184
1974030S15182 1974 12 SP EA PAM 1974-02-06 11:00:00 TS -31.2291 157.906 80 960 bom main 456 456 P_____O_PPP_P_ SH201974 -31.0860 157.914 -1 -31.4000 157.700 40 80 960 5.00000 -31.6938 158.095 55 979 -31.0860 157.914 TC -31.0863 157.899 4 -31.0224 157.917 TC 65 110 110 10 0
1974030S15182 1974 12 SP EA PAM 1974-02-06 12:00:00 TS -31.3789 157.903 main 456 456 O_____P_OOO_O_ jtwc_sh SH201974 -31.2000 157.900 -1 -31.5733 157.716 40 80 960 -31.9000 158.100 55 980 -31.2000 157.900 TC -31.2000 157.900 4 -31.2000 157.900 TC 65 7 0
1974030S15182 1974 12 SP EA PAM 1974-02-06 15:00:00 TS -31.7268 157.898 main 459 459 P_____P_PPP_P_ SH201974 -31.5350 157.900 -1 -31.9713 157.817 40 80 960 -32.1869 158.114 55 980 -31.5350 157.900 TC -31.4952 157.814 4 -31.6375 157.842 TC 65 7 0
1974030S15182 1974 12 SP EA PAM 1974-02-06 17:00:00 TS -31.9371 157.907 80 960 bom main 462 465 P_____O_PPP_P_ SH201974 -31.7719 157.903 -1 -32.2000 157.900 40 80 960 5.00000 -32.2994 158.166 55 980 -31.7719 157.903 TC -31.6997 157.758 4 -31.8798 157.811 TC 65 110 110 6 0
1974030S15182 1974 12 SP EA PAM 1974-02-06 18:00:00 TS -32.0442 157.910 main 465 465 O_____P_POP_O_ jtwc_sh SH201974 -31.9000 157.900 -1 -32.3018 157.918 40 77 962 -32.3511 158.207 55 980 -31.9000 157.900 TC -31.8122 157.737 4 -32.0000 157.800 TC 65 7 178
1974030S15182 1974 12 SP EA PAM 1974-02-06 21:00:00 TS -32.3773 157.917 main 475 475 P_____P_PPP_P_ SH201974 -32.2675 157.821 -1 -32.6383 157.988 40 70 969 -32.5647 158.396 55 980 -32.2675 157.821 TC -32.2231 157.716 4 -32.3025 157.763 TC 65 8 177
1974030S15182 1974 12 SP EA PAM 1974-02-06 23:00:00 TS -32.6973 157.967 65 974 bom main 494 494 P_____O_PPP_P_ SH201974 -32.5933 157.791 -1 -33.0000 158.100 40 65 974 4.50000 -32.8197 158.585 55 980 -32.5933 157.791 TC -32.5848 157.757 4 -32.5924 157.775 TC 65 89 89 11 171
1974030S15182 1974 12 SP EA PAM 1974-02-07 00:00:00 TS -32.9108 158.012 main 502 502 O_____P_OOO_O_ jtwc_sh SH201974 -32.8000 157.800 -1 -33.2645 158.173 40 65 974 -33.0000 158.700 55 980 -32.8000 157.800 TC -32.8000 157.800 4 -32.8000 157.800 TC 65 17 168
1974030S15182 1974 12 SP EA PAM 1974-02-07 03:00:00 TS -33.7790 158.233 main 550 550 P_____P_PPP_P_ SH201974 -33.6022 157.912 -1 -34.2674 158.524 40 65 976 -33.7838 159.133 55 980 -33.6022 157.912 TC -33.6511 157.999 4 -33.7672 157.919 TC 62 19 166
1974030S15182 1974 12 SP EA PAM 1974-02-07 05:00:00 TS -34.4707 158.472 65 978 bom main 602 602 P_____O_PPP_P_ SH201974 -34.2534 158.081 -1 -35.0000 158.900 40 65 978 4.50000 -34.4760 159.485 55 980 -34.2534 158.081 TC -34.3140 158.199 4 -34.5271 158.084 TC 60 89 89 21 164
1974030S15182 1974 12 SP EA PAM 1974-02-07 06:00:00 TS -34.8072 158.600 main 623 623 O_____P_POP_O_ jtwc_sh SH201974 -34.6000 158.200 -1 -35.3545 159.140 40 65 979 -34.8620 159.678 55 980 -34.6000 158.200 TC -34.6637 158.319 4 -34.9000 158.200 TC 60 22 161
1974030S15182 1974 12 SP EA PAM 1974-02-07 09:00:00 TS -35.8704 159.051 main 720 720 P_____P_PPP_P_ SH201974 -35.7075 158.674 -1 -36.3593 160.027 40 65 984 -36.1343 160.310 55 980 -35.7075 158.674 TC -35.7445 158.754 4 -35.8798 158.668 TC 60 22 161
1974030S15182 1974 12 SP EA PAM 1974-02-07 11:00:00 TS -36.5536 159.348 main 777 785 P_____O_PPP_P_ SH201974 -36.4513 159.081 -1 -37.0000 160.700 40 65 988 4.50000 -37.0406 160.766 55 980 -36.4513 159.081 TC -36.4567 159.106 4 -36.4998 159.076 TC 60 89 89 20 164
1974030S15182 1974 12 SP EA PAM 1974-02-07 12:00:00 TS -36.8412 159.400 55 980 wellington main 791 791 O_______OOO_O_ jtwc_sh SH201974 -36.8000 159.300 -1 40 -37.5000 161.000 55 980 -36.8000 159.300 TC -36.8000 159.300 4 -36.8000 159.300 TC 60 18 156
1974030S15182 1974 12 SP EA PAM 1974-02-07 15:00:00 TS -37.6761 159.968 main 866 866 P________PP_P_ SH201974 -37.6871 159.965 -1 40 -37.6871 159.965 TC -37.6650 159.923 4 -37.6650 160.021 TC 60 20 148
1974030S15182 1974 12 SP MM PAM 1974-02-07 18:00:00 TS -38.4982 160.713 main 887 781 O________OP_O_ jtwc_sh SH201974 -38.5000 160.700 -1 -38.5000 160.700 TC -38.4927 160.652 4 -38.5000 160.800 TC 60 20 144
1974030S15182 1974 12 SP MM PAM 1974-02-07 21:00:00 TS -39.3262 161.486 main 775 663 P________PP_P_ SH201974 -39.3271 161.480 -1 -39.3271 161.480 TC -39.3238 161.454 4 -39.3266 161.531 TC 60 21 144
1974030S15182 1974 12 SP MM PAM 1974-02-08 00:00:00 TS -40.2000 162.300 main 656 537 O________OO_O_ jtwc_sh SH201974 -40.2000 162.300 -1 -40.2000 162.300 TC -40.2000 162.300 4 -40.2000 162.300 TC 60 22 145
1974030S15182 1974 12 SP MM PAM 1974-02-08 03:00:00 TS -41.1653 163.151 main 523 403 P________PP_P_ SH201974 -41.1693 163.130 -1 -41.1693 163.130 TC -41.1527 163.165 4 -41.1699 163.179 TC 60 24 147
1974030S15182 1974 12 SP MM PAM 1974-02-08 06:00:00 TS -42.1924 164.037 main 395 263 O________OP_O_ jtwc_sh SH201974 -42.2000 164.000 -1 -42.2000 164.000 TC -42.1697 164.049 4 -42.2000 164.100 TC 60 25 147
1974030S15182 1974 12 SP MM PAM 1974-02-08 09:00:00 TS -43.2435 164.953 main 257 135 P________PP_P_ SH201974 -43.2492 164.926 -1 -43.2492 164.926 TC -43.2270 164.959 4 -43.2485 165.002 TC 55 25 147
1974030S15182 1974 12 SP MM PAM 1974-02-08 12:00:00 TS -44.3000 165.900 main 122 O________OO_O_ jtwc_sh SH201974 -44.3000 165.900 -1 -44.3000 165.900 TC -44.3000 165.900 4 -44.3000 165.900 TC 50 25 147

Digital Typhoon Data and Search

About IBTrACS Database

This database is a web-friendly format of International Best Track Archive for Climate Stewardship (IBTrACS), a global best track data archive curated by NOAA dating back to 1842.

Updated: 2021-11-26